Aérodrome :
LOGIN :

S'inscrire | Disclaimer

   EN    FR    IT 

 










Légende :    VFR   VFR Marginal   IFR   IFR Intensif   IFR Très Intensif
Visi : 
Plafond : 
>= 8 km
>= 3000ft
5 à 8 km
1000 à 3000 ft
1500m à 5 km
500 à 1000 ft
800 à 1500m
200 à 500 ft
< 800m
< 200 ft
Symboles :   Orages  Brouillard  Fortes neiges  Fortes précipitations  Vent > 20 kt
SIGMETs :   Divers  Orages  Givrage  Turbulence  Onde Orograph.  Cendres Volcan.







- Altitude de l'aérodrome : 935 ft


EBFS - Florennes

DERNIER METAR :
  • 201547Z AUTO 10017KT 9999 -RA FEW047/// BKN070/// BKN100/// 15/11 Q1019 BLU

METARs EXPIRÉS :
  • 201536Z AUTO 09014KT 5000 RA SCT046/// BKN070/// 16/10 Q1019 WHT
  • 201525Z AUTO 05005KT 9999 FEW046/// SCT070/// BKN220/// 20/10 Q1018 BLU
  • 201455Z AUTO 05007KT 9999 FEW220/// 21/09 Q1019 BLU
  • 201425Z AUTO 05007KT 9999 FEW045/// 21/10 Q1019 BLU
  • 201355Z AUTO 04008KT 9999 FEW042/// 20/09 Q1020 BLU
  • 201325Z AUTO 03005KT 9999 FEW044/// 21/10 Q1020 BLU
  • 201255Z AUTO 05005KT 9999 FEW210/// 20/08 Q1020 BLU

TAF TAF EBFS
Valide du 20 à 13h jusqu'au 20 à 22h UTC


201141Z 2013/2022 08010G20KT 9999 FEW030
PROB40
TEMPO 2013/2022 07010G25KT 6000 -SHRA SCT025
PROB30
TEMPO 2016/2022 VRB15G30KT 3000 SHRA TSRA BKN020
Pas de NOTAMs connus pour ce terrain.
1 SIGMET publié pour la FIR Brussels (EBBU) :
 
Orages noyés dans la masse
EBBU SIGMET 01 VALID 201530/201930 EBBR
EBBU BRUSSELS FIR EMBD TS OBS SE OF LINE N5000 E0407 - N5050 E0537 TOP FL320 MOV W 25KT INTSF=



MET'MAP, la Météo Aéronautique d'un coup d'oeil ! - Copyright ORBIFLY Décembre 2007 - Disclaimer

ORBIFLY MET'MAP TEAM :

Programmation & Développement : Alexandra Zaïnal
Conception & Développement : Baudouin d'Aumeries
Co-Programmation & Développement : Marc-Olivier Méhu
Soutien technique & logistique : Manuel Goepfert

Contact : metmap@orbifly.com




SOURCES & CREDITS :

   NOAA